Time;durP1;ratioP1;P1;durP2;ratioP2;P2;SDS_P1;SDS_P2;PMS_P1;PMS_P2;Temp;Humidity;BMP_temperature;BMP_pressure;BME280_temperature;BME280_humidity;BME280_pressure;Samples;Min_cycle;Max_cycle;Signal;HPM_P1;HPM_P2
2022/05/20 04:03:58;;;;;;;11.30;10.30;;;18.30;99.90;;;;;;5016849;28;20577;-64
2022/05/20 04:06:24;;;;;;;11.27;10.30;;;18.40;99.90;;;;;;5016906;28;20453;-65
2022/05/20 04:08:51;;;;;;;11.30;10.20;;;18.40;99.90;;;;;;5019624;28;20453;-65
2022/05/20 04:11:18;;;;;;;12.03;10.83;;;18.50;99.90;;;;;;5027761;28;20468;-64
2022/05/20 04:13:45;;;;;;;12.10;10.90;;;18.50;99.90;;;;;;5020429;28;20475;-64
2022/05/20 04:16:17;;;;;;;11.30;10.33;;;18.60;99.90;;;;;;5016485;28;20476;-64
2022/05/20 04:18:44;;;;;;;11.33;10.43;;;18.70;99.90;;;;;;5016478;28;20805;-65
2022/05/20 04:21:12;;;;;;;11.03;10.23;;;18.70;99.90;;;;;;5016336;28;20564;-64
2022/05/20 04:23:39;;;;;;;11.27;10.23;;;18.70;99.90;;;;;;5016328;28;20542;-64
2022/05/20 04:26:06;;;;;;;10.57;9.50;;;18.70;99.90;;;;;;5016333;28;20797;-65
2022/05/20 04:28:33;;;;;;;13.83;11.50;;;18.60;99.90;;;;;;5016281;28;20484;-64
2022/05/20 04:31:03;;;;;;;11.97;10.87;;;18.60;99.90;;;;;;5016126;28;20979;-64
2022/05/20 04:33:31;;;;;;;11.70;10.50;;;18.60;99.90;;;;;;5016331;28;20449;-64
2022/05/20 04:35:58;;;;;;;11.10;10.30;;;18.60;99.90;;;;;;5016503;28;20460;-64
2022/05/20 04:38:25;;;;;;;10.83;10.03;;;18.60;99.90;;;;;;5016416;28;20813;-64
2022/05/20 04:49:05;;;;;;;13.20;11.90;;;18.50;99.90;;;;;;5016066;28;20899;-63
2022/05/20 04:51:32;;;;;;;11.70;10.53;;;18.50;99.90;;;;;;5015775;28;20975;-64
2022/05/20 04:56:43;;;;;;;11.90;10.87;;;18.40;99.90;;;;;;5015626;28;20424;-65
2022/05/20 04:59:10;;;;;;;14.33;11.00;;;18.30;99.90;;;;;;5015604;28;20461;-65
2022/05/20 05:01:37;;;;;;;12.37;11.23;;;18.30;99.90;;;;;;5015243;28;20485;-64
2022/05/20 05:04:05;;;;;;;14.57;12.37;;;18.30;99.90;;;;;;5015388;28;20975;-64
2022/05/20 05:06:32;;;;;;;11.97;10.97;;;18.40;99.90;;;;;;5015607;28;20452;-65
2022/05/20 05:08:58;;;;;;;11.60;10.73;;;18.40;99.90;;;;;;5015068;28;20457;-64
2022/05/20 05:11:25;;;;;;;10.43;9.53;;;18.40;99.90;;;;;;5015144;28;21006;-63
2022/05/20 05:13:52;;;;;;;11.40;10.50;;;18.40;99.90;;;;;;5015538;28;20453;-64
2022/05/20 05:16:18;;;;;;;10.63;9.83;;;18.50;99.90;;;;;;5015116;28;20856;-64
2022/05/20 05:18:45;;;;;;;11.20;10.00;;;18.50;99.90;;;;;;5015601;28;20437;-65
2022/05/20 05:21:16;;;;;;;9.63;9.03;;;18.60;99.90;;;;;;5017255;28;20480;-64
2022/05/20 05:23:43;;;;;;;13.07;10.37;;;18.70;99.90;;;;;;5019012;28;20967;-65
2022/05/20 05:26:10;;;;;;;10.37;9.40;;;18.90;99.90;;;;;;5016547;28;20459;-64
2022/05/20 05:28:37;;;;;;;9.93;9.03;;;19.10;99.90;;;;;;5016462;28;20456;-64
2022/05/20 05:31:04;;;;;;;10.57;9.30;;;19.30;99.90;;;;;;5015046;28;20492;-64
2022/05/20 05:33:31;;;;;;;10.63;9.63;;;19.50;99.90;;;;;;5014885;28;20960;-64
2022/05/20 05:35:57;;;;;;;9.63;8.73;;;19.60;99.90;;;;;;5015259;28;20814;-64
2022/05/20 05:38:26;;;;;;;10.67;9.73;;;19.60;99.90;;;;;;5014990;28;20463;-64
2022/05/20 05:40:52;;;;;;;10.00;9.00;;;19.70;99.90;;;;;;5015326;28;20484;-63
2022/05/20 05:43:19;;;;;;;12.30;9.20;;;19.80;99.90;;;;;;5015021;28;20484;-64
2022/05/20 05:45:46;;;;;;;10.90;9.83;;;19.80;99.90;;;;;;5014863;28;20464;-63
2022/05/20 05:48:15;;;;;;;10.77;9.73;;;19.90;99.90;;;;;;5014828;28;20480;-63
2022/05/20 05:50:42;;;;;;;14.73;9.80;;;20.00;99.90;;;;;;5014529;28;20845;-63
2022/05/20 05:53:13;;;;;;;10.23;9.30;;;20.20;99.90;;;;;;5014713;28;20523;-64
2022/05/20 05:55:43;;;;;;;10.20;9.10;;;20.30;99.90;;;;;;5014745;28;20444;-63
2022/05/20 05:58:10;;;;;;;10.93;9.83;;;20.50;99.90;;;;;;5014706;28;20541;-63
2022/05/20 06:00:38;;;;;;;9.80;8.97;;;20.60;99.90;;;;;;5014574;28;20492;-64
2022/05/20 06:03:05;;;;;;;10.17;9.37;;;20.80;99.90;;;;;;5014400;28;20464;-63
2022/05/20 06:05:32;;;;;;;10.07;9.13;;;20.90;99.90;;;;;;5014472;28;20463;-64
2022/05/20 06:08:00;;;;;;;10.97;10.07;;;21.10;99.90;;;;;;5014809;28;20448;-64
2022/05/20 06:10:27;;;;;;;10.10;9.20;;;21.10;99.90;;;;;;5014709;28;20939;-63
2022/05/20 06:12:55;;;;;;;11.03;9.47;;;21.10;99.90;;;;;;5014822;28;20457;-64
2022/05/20 06:15:23;;;;;;;10.50;9.57;;;21.20;99.90;;;;;;5015024;28;20519;-63
2022/05/20 06:17:50;;;;;;;10.27;9.47;;;21.40;99.90;;;;;;5014482;28;20453;-64
2022/05/20 06:20:18;;;;;;;9.60;8.80;;;21.50;99.90;;;;;;5013375;28;20823;-63
2022/05/20 06:22:45;;;;;;;10.53;8.80;;;21.60;99.90;;;;;;5013976;28;20476;-63
2022/05/20 06:25:12;;;;;;;8.80;8.10;;;21.70;99.90;;;;;;5014170;28;20457;-63
2022/05/20 06:27:39;;;;;;;9.47;8.57;;;21.80;99.90;;;;;;5014553;28;20460;-63
2022/05/20 06:30:11;;;;;;;14.60;8.00;;;21.90;99.90;;;;;;5014004;28;20453;-63
2022/05/20 06:32:38;;;;;;;9.73;7.90;;;22.10;99.90;;;;;;5014136;28;20441;-63
2022/05/20 06:40:36;;;;;;;8.07;7.23;;;22.80;99.90;;;;;;5014271;28;20456;-63
2022/05/20 06:43:04;;;;;;;8.93;6.93;;;23.20;99.90;;;;;;5013676;28;20995;-63
2022/05/20 06:45:33;;;;;;;9.90;7.23;;;23.60;99.90;;;;;;5014020;28;20457;-64
2022/05/20 06:47:59;;;;;;;8.00;7.40;;;24.00;99.90;;;;;;5013915;28;20465;-64
2022/05/20 06:50:26;;;;;;;8.07;7.23;;;24.30;99.90;;;;;;5013809;28;20457;-64
2022/05/20 06:52:53;;;;;;;7.87;7.07;;;24.80;99.90;;;;;;5013801;28;20448;-64
2022/05/20 06:55:20;;;;;;;7.40;6.80;;;25.30;99.90;;;;;;5013884;28;20532;-64
2022/05/20 06:57:46;;;;;;;9.60;6.03;;;25.90;99.90;;;;;;5013808;28;20527;-64
2022/05/20 07:00:14;;;;;;;8.73;6.40;;;26.30;99.90;;;;;;5013633;28;20484;-64
2022/05/20 07:02:43;;;;;;;6.83;6.33;;;26.70;99.90;;;;;;5013649;28;20484;-64
2022/05/20 07:05:10;;;;;;;6.73;6.13;;;27.20;99.90;;;;;;5013830;28;20547;-63
2022/05/20 07:07:38;;;;;;;6.20;5.70;;;27.50;99.90;;;;;;5013735;28;20883;-64
2022/05/20 07:10:06;;;;;;;7.73;5.47;;;27.80;99.90;;;;;;5013942;28;20460;-64
2022/05/20 07:12:34;;;;;;;6.20;5.67;;;28.20;99.90;;;;;;5024613;28;20833;-64
2022/05/20 07:15:00;;;;;;;6.23;5.63;;;28.40;99.90;;;;;;5019186;28;20481;-64
2022/05/20 07:17:28;;;;;;;6.93;5.67;;;28.70;99.90;;;;;;5013820;28;20457;-64
2022/05/20 07:19:56;;;;;;;6.70;5.60;;;29.00;99.90;;;;;;5013490;28;20943;-64
2022/05/20 07:22:23;;;;;;;14.37;5.30;;;29.50;99.90;;;;;;5013498;28;20512;-64
2022/05/20 07:24:50;;;;;;;5.53;4.97;;;29.90;99.90;;;;;;5013430;28;20453;-64
2022/05/20 07:27:17;;;;;;;8.87;5.67;;;30.40;99.90;;;;;;5013238;28;20870;-63
2022/05/20 07:29:44;;;;;;;5.67;5.17;;;30.50;99.90;;;;;;5013510;28;20522;-65
2022/05/20 07:32:11;;;;;;;7.90;6.50;;;30.70;99.60;;;;;;5016124;28;20814;-64
2022/05/20 07:34:38;;;;;;;6.50;5.77;;;30.80;99.90;;;;;;5017387;28;20818;-64
2022/05/20 07:37:06;;;;;;;6.00;5.40;;;31.10;99.90;;;;;;5017094;28;20463;-64
2022/05/20 07:39:33;;;;;;;6.00;5.50;;;31.10;97.90;;;;;;5017094;28;20838;-64
2022/05/20 07:42:00;;;;;;;9.87;5.47;;;31.40;97.90;;;;;;5017438;28;20473;-64
2022/05/20 07:44:27;;;;;;;10.90;5.30;;;31.70;97.70;;;;;;5017551;28;20530;-64
2022/05/20 07:46:54;;;;;;;7.07;4.93;;;31.60;95.60;;;;;;5017347;28;20452;-64
2022/05/20 07:49:21;;;;;;;6.40;4.40;;;32.00;96.20;;;;;;5016940;28;20478;-64
2022/05/20 07:51:51;;;;;;;7.70;5.27;;;32.30;94.70;;;;;;5016604;28;20218;-64
2022/05/20 07:54:24;;;;;;;5.30;4.87;;;32.70;94.30;;;;;;5016731;28;20432;-64
2022/05/20 07:56:57;;;;;;;5.30;4.50;;;32.90;92.40;;;;;;5016784;28;20576;-64
2022/05/20 07:59:27;;;;;;;6.80;5.10;;;33.30;92.50;;;;;;5017280;28;20761;-64
2022/05/20 08:01:55;;;;;;;5.30;4.90;;;33.50;90.00;;;;;;5016642;28;20488;-64
2022/05/20 08:07:13;;;;;;;5.10;4.70;;;34.10;87.60;;;;;;5016833;28;20528;-64
2022/05/20 08:09:41;;;;;;;5.93;5.00;;;34.30;86.30;;;;;;5016737;28;20463;-64
2022/05/20 08:12:09;;;;;;;4.83;4.43;;;34.60;83.10;;;;;;5016303;28;20862;-64
2022/05/20 08:14:36;;;;;;;9.70;4.80;;;34.90;82.80;;;;;;5016464;28;20448;-64
2022/05/20 08:17:03;;;;;;;4.97;4.47;;;35.00;79.70;;;;;;5016478;28;20479;-64
2022/05/20 08:19:30;;;;;;;5.40;4.90;;;35.10;78.80;;;;;;5016357;28;20460;-65
2022/05/20 08:21:57;;;;;;;8.23;4.70;;;35.40;79.50;;;;;;5016290;28;20827;-65
2022/05/20 08:24:24;;;;;;;5.67;5.13;;;35.70;75.30;;;;;;5016224;28;20460;-66
2022/05/20 08:26:53;;;;;;;7.17;4.90;;;36.10;75.60;;;;;;5016217;28;20803;-65
2022/05/20 08:29:20;;;;;;;5.00;4.70;;;36.40;71.10;;;;;;5016289;28;20449;-65
2022/05/20 08:31:46;;;;;;;5.10;4.60;;;36.60;70.20;;;;;;5016289;28;20472;-65
2022/05/20 08:34:14;;;;;;;6.10;5.07;;;36.90;71.50;;;;;;5017561;28;20452;-65
2022/05/20 08:36:41;;;;;;;5.67;5.10;;;37.20;67.70;;;;;;5017180;28;20879;-66
2022/05/20 08:39:12;;;;;;;5.00;4.57;;;37.30;70.50;;;;;;5016859;28;20459;-65
2022/05/20 08:41:42;;;;;;;5.70;5.03;;;37.50;71.80;;;;;;5016417;28;20504;-65
2022/05/20 08:44:12;;;;;;;5.03;4.00;;;38.00;68.60;;;;;;5015232;28;20571;-65
2022/05/20 08:46:40;;;;;;;5.37;3.83;;;38.20;56.30;;;;;;5017116;28;20469;-65
2022/05/20 08:49:10;;;;;;;4.27;3.80;;;38.00;53.20;;;;;;5016465;28;20475;-65
2022/05/20 08:51:39;;;;;;;5.50;3.50;;;38.00;57.90;;;;;;5015664;28;21120;-65
2022/05/20 08:54:07;;;;;;;7.13;4.00;;;38.00;54.20;;;;;;5015411;28;20982;-65
2022/05/20 08:56:37;;;;;;;4.33;4.00;;;37.90;54.50;;;;;;5015844;28;21006;-65
2022/05/20 08:59:06;;;;;;;4.70;4.40;;;37.80;54.40;;;;;;5015846;28;20443;-65
2022/05/20 09:01:36;;;;;;;6.50;4.00;;;37.90;54.70;;;;;;5015573;28;20479;-65
2022/05/20 09:04:05;;;;;;;4.70;3.70;;;37.90;56.30;;;;;;5015694;28;20461;-65
2022/05/20 09:06:32;;;;;;;5.10;3.63;;;38.10;56.00;;;;;;5015643;28;20456;-65
2022/05/20 09:09:07;;;;;;;3.70;3.40;;;38.00;51.60;;;;;;5015485;28;20452;-65
2022/05/20 09:11:33;;;;;;;7.07;4.20;;;38.10;51.10;;;;;;5015241;28;20483;-64
2022/05/20 09:17:03;;;;;;;4.93;4.40;;;37.90;52.50;;;;;;5015263;28;20503;-64
2022/05/20 09:19:30;;;;;;;7.80;4.10;;;38.10;50.70;;;;;;5015083;28;20441;-64
2022/05/20 09:22:06;;;;;;;4.50;3.70;;;38.00;51.80;;;;;;5014964;28;20480;-64
2022/05/20 09:24:39;;;;;;;11.10;5.60;;;38.20;55.40;;;;;;5015015;28;20460;-64
2022/05/20 09:27:08;;;;;;;4.10;3.80;;;38.50;53.10;;;;;;5014916;28;20452;-64
2022/05/20 09:29:41;;;;;;;3.83;3.53;;;38.60;51.20;;;;;;5014932;28;20461;-65
2022/05/20 09:32:22;;;;;;;4.70;4.20;;;39.00;51.20;;;;;;5014925;28;20905;-65
2022/05/20 09:35:00;;;;;;;4.50;3.97;;;39.50;50.00;;;;;;5014943;28;20460;-65
2022/05/20 09:37:30;;;;;;;4.80;4.30;;;39.50;49.30;;;;;;5014423;28;20969;-65
2022/05/20 09:39:57;;;;;;;4.50;4.10;;;39.60;48.60;;;;;;5014659;28;20456;-65
2022/05/20 09:42:26;;;;;;;6.03;3.07;;;39.60;47.80;;;;;;5014575;28;20304;-65
2022/05/20 09:44:55;;;;;;;3.73;3.43;;;39.50;45.40;;;;;;5014199;28;20837;-65
2022/05/20 09:47:29;;;;;;;4.40;4.00;;;39.60;45.60;;;;;;5014310;28;20664;-65
2022/05/20 09:49:59;;;;;;;4.60;4.20;;;39.40;47.60;;;;;;5014706;28;20448;-65
2022/05/20 09:52:41;;;;;;;5.00;3.97;;;39.20;47.80;;;;;;5014552;28;20472;-65
2022/05/20 09:55:13;;;;;;;8.40;4.43;;;39.40;47.20;;;;;;5014459;28;20797;-65
2022/05/20 09:57:43;;;;;;;4.20;3.80;;;39.70;48.80;;;;;;5014504;28;20186;-65
2022/05/20 10:00:17;;;;;;;4.33;4.03;;;39.80;46.90;;;;;;5014546;28;20220;-65
2022/05/20 10:02:53;;;;;;;5.57;4.20;;;39.80;45.60;;;;;;5014538;28;20267;-65
2022/05/20 10:05:27;;;;;;;4.73;4.33;;;39.90;46.60;;;;;;5014028;28;20690;-65
2022/05/20 10:08:09;;;;;;;4.90;4.40;;;39.50;46.20;;;;;;5014327;28;20182;-65
2022/05/20 10:10:54;;;;;;;4.20;3.93;;;39.40;46.70;;;;;;5014353;28;20217;-65
2022/05/20 10:13:29;;;;;;;4.87;4.13;;;39.50;46.70;;;;;;5015003;28;20440;-65
2022/05/20 10:16:06;;;;;;;7.63;6.27;;;39.50;47.40;;;;;;5014404;28;20186;-66
2022/05/20 10:18:43;;;;;;;5.00;4.13;;;39.50;46.20;;;;;;5014207;28;20507;-65
2022/05/20 10:21:15;;;;;;;6.27;4.73;;;39.50;47.00;;;;;;5014206;28;20483;-65
2022/05/20 10:23:53;;;;;;;4.90;4.50;;;39.50;47.10;;;;;;5014082;28;20468;-65
2022/05/20 10:26:30;;;;;;;5.47;4.10;;;39.40;48.50;;;;;;5014352;28;20224;-65
2022/05/20 10:34:38;;;;;;;4.13;3.73;;;39.30;49.50;;;;;;5032054;28;20801;-65
2022/05/20 10:37:16;;;;;;;4.00;3.60;;;39.50;47.70;;;;;;5029846;28;20448;-65
2022/05/20 10:40:20;;;;;;;3.93;3.53;;;39.30;46.60;;;;;;5014085;28;20934;-65
2022/05/20 10:43:02;;;;;;;6.07;4.40;;;39.40;46.70;;;;;;5000988;28;20539;-66
2022/05/20 10:48:41;;;;;;;5.10;4.70;;;38.70;48.50;;;;;;5013673;28;20419;-65
2022/05/20 10:51:31;;;;;;;4.43;4.00;;;38.70;47.60;;;;;;5013687;28;20483;-65
2022/05/20 10:54:07;;;;;;;5.57;4.73;;;38.60;47.00;;;;;;5013778;28;20452;-65
2022/05/20 10:56:49;;;;;;;6.50;3.70;;;38.50;46.00;;;;;;5013747;28;20448;-65
2022/05/20 10:59:36;;;;;;;6.97;4.00;;;38.50;46.30;;;;;;5014065;28;20440;-65
2022/05/20 11:02:20;;;;;;;5.00;4.20;;;38.60;45.80;;;;;;5022449;28;20476;-65
2022/05/20 11:05:10;;;;;;;5.37;4.20;;;38.70;47.60;;;;;;5026972;28;20496;-65
2022/05/20 11:07:54;;;;;;;5.50;4.10;;;38.80;51.60;;;;;;5017764;28;20464;-65
2022/05/20 11:10:53;;;;;;;5.40;4.90;;;39.00;53.20;;;;;;5017341;28;20444;-65
2022/05/20 11:13:33;;;;;;;7.13;4.47;;;39.10;51.20;;;;;;5017401;28;20444;-65
2022/05/20 11:16:28;;;;;;;6.50;5.33;;;39.10;48.80;;;;;;5017496;28;20443;-65
2022/05/20 11:19:23;;;;;;;4.50;4.10;;;39.10;50.00;;;;;;5010084;28;20972;-65
2022/05/20 11:22:14;;;;;;;4.90;4.50;;;39.20;52.20;;;;;;5017296;28;20495;-65
2022/05/20 11:24:58;;;;;;;5.00;4.57;;;38.70;52.60;;;;;;5017297;28;20460;-65
2022/05/20 11:27:56;;;;;;;6.50;4.60;;;38.30;53.50;;;;;;5017435;28;20432;-65
2022/05/20 11:30:35;;;;;;;5.00;4.60;;;38.00;53.90;;;;;;5016347;28;20823;-65
2022/05/20 11:33:40;;;;;;;5.13;4.63;;;37.80;53.90;;;;;;5017850;28;20516;-65
2022/05/20 11:36:25;;;;;;;5.93;4.50;;;37.60;55.20;;;;;;5014389;28;20459;-65
2022/05/20 11:39:19;;;;;;;5.40;4.93;;;37.50;53.50;;;;;;5017238;28;20436;-65
2022/05/20 11:41:51;;;;;;;5.13;4.40;;;37.30;55.10;;;;;;5017133;28;20476;-66
2022/05/20 11:44:48;;;;;;;5.80;5.10;;;37.30;55.00;;;;;;5016852;28;20982;-65
2022/05/20 11:47:35;;;;;;;6.90;5.40;;;36.80;56.40;;;;;;5010851;28;20791;-65
2022/05/20 11:50:40;;;;;;;5.30;4.90;;;36.60;56.40;;;;;;5016715;28;20919;-65
2022/05/20 11:53:12;;;;;;;6.50;4.60;;;36.40;56.40;;;;;;5006832;28;20502;-66
2022/05/20 11:55:43;;;;;;;8.60;5.70;;;36.20;57.50;;;;;;5016922;28;20428;-66
2022/05/20 11:58:25;;;;;;;5.50;4.87;;;36.10;56.50;;;;;;5016867;28;20459;-65
2022/05/20 12:00:53;;;;;;;5.00;4.30;;;36.00;54.60;;;;;;5016273;28;20913;-65
2022/05/20 12:03:23;;;;;;;5.63;5.13;;;35.70;54.10;;;;;;5016621;28;20456;-65
2022/05/20 12:05:51;;;;;;;8.53;4.80;;;35.60;56.80;;;;;;5016551;28;20987;-66
2022/05/20 12:08:56;;;;;;;6.13;5.10;;;35.70;55.40;;;;;;5016716;28;20453;-66
2022/05/20 12:11:27;;;;;;;5.90;4.70;;;36.00;55.60;;;;;;5016755;28;20526;-65
2022/05/20 12:14:07;;;;;;;7.23;5.30;;;35.90;58.30;;;;;;5017093;28;20437;-65
2022/05/20 12:16:52;;;;;;;6.87;5.70;;;36.00;58.30;;;;;;5016663;28;20440;-65
2022/05/20 12:24:52;;;;;;;7.37;5.17;;;35.90;57.10;;;;;;5016165;28;20862;-65
2022/05/20 12:27:37;;;;;;;5.10;4.63;;;35.90;58.60;;;;;;5015928;28;20452;-65
2022/05/20 12:30:10;;;;;;;5.87;5.30;;;36.00;58.00;;;;;;5017154;28;20483;-65
2022/05/20 12:32:48;;;;;;;7.93;4.70;;;36.00;57.10;;;;;;5016227;28;20495;-65
2022/05/20 12:35:18;;;;;;;6.47;5.27;;;36.20;57.50;;;;;;5016184;28;20432;-66
2022/05/20 12:38:25;;;;;;;10.00;6.33;;;36.30;55.00;;;;;;5015948;28;20456;-65
2022/05/20 12:41:02;;;;;;;8.57;4.93;;;36.10;57.80;;;;;;5016000;28;20530;-65
2022/05/20 12:43:46;;;;;;;6.10;4.57;;;36.10;56.30;;;;;;5015958;28;20440;-65
2022/05/20 12:46:21;;;;;;;4.83;4.33;;;36.00;55.10;;;;;;5015835;28;20479;-65
2022/05/20 12:48:49;;;;;;;6.20;5.10;;;35.90;56.00;;;;;;5015573;28;20904;-65
2022/05/20 12:51:16;;;;;;;6.37;5.60;;;35.80;56.50;;;;;;5015766;28;20484;-66
2022/05/20 12:53:42;;;;;;;7.30;5.00;;;35.70;58.10;;;;;;5015765;28;20452;-65
2022/05/20 12:56:26;;;;;;;7.50;5.07;;;35.70;59.00;;;;;;5015525;28;20483;-65
2022/05/20 12:58:53;;;;;;;7.10;4.77;;;35.70;55.30;;;;;;5015642;28;20527;-65
2022/05/20 13:01:22;;;;;;;7.17;4.40;;;35.80;54.70;;;;;;5015283;28;20488;-66
2022/05/20 13:03:52;;;;;;;5.23;4.73;;;35.90;59.00;;;;;;5015567;28;20475;-65
2022/05/20 13:06:22;;;;;;;5.40;4.77;;;36.00;56.90;;;;;;5015616;28;20451;-66
2022/05/20 13:08:51;;;;;;;9.13;7.10;;;36.10;55.20;;;;;;5015470;28;20457;-65
2022/05/20 13:11:19;;;;;;;5.57;4.90;;;36.20;58.50;;;;;;5015360;28;20509;-65
2022/05/20 13:13:50;;;;;;;4.93;4.43;;;36.20;56.50;;;;;;5015310;28;20456;-65
2022/05/20 13:16:20;;;;;;;5.03;4.53;;;36.10;53.50;;;;;;5014877;28;20899;-65
2022/05/20 13:19:00;;;;;;;4.90;4.50;;;36.10;56.00;;;;;;5015183;28;20527;-65
2022/05/20 13:21:30;;;;;;;5.40;4.20;;;36.00;53.90;;;;;;5015432;28;20483;-66
2022/05/20 13:23:56;;;;;;;4.43;3.87;;;35.60;49.50;;;;;;5015246;28;20556;-66
2022/05/20 13:26:27;;;;;;;4.13;3.40;;;35.40;50.20;;;;;;5015087;28;20487;-65
2022/05/20 13:29:00;;;;;;;4.20;3.90;;;35.30;48.80;;;;;;5014860;28;20459;-66
2022/05/20 13:31:27;;;;;;;7.00;3.83;;;35.10;49.60;;;;;;5014537;28;20990;-65
2022/05/20 13:33:55;;;;;;;8.23;3.90;;;34.90;48.00;;;;;;5014758;28;20492;-65
2022/05/20 13:36:23;;;;;;;4.63;3.77;;;34.50;48.80;;;;;;5014845;28;20452;-65
2022/05/20 13:38:53;;;;;;;5.30;3.60;;;34.40;48.00;;;;;;5014865;28;20448;-66
2022/05/20 13:41:22;;;;;;;7.70;3.63;;;34.50;50.10;;;;;;5014792;28;20472;-66
2022/05/20 13:43:52;;;;;;;9.23;3.57;;;34.50;47.20;;;;;;5014947;28;20486;-65
2022/05/20 13:49:15;;;;;;;9.53;3.80;;;34.30;47.50;;;;;;5015134;28;20419;-65
2022/05/20 13:51:46;;;;;;;4.53;4.00;;;34.10;46.30;;;;;;5014684;28;20479;-65
2022/05/20 13:54:17;;;;;;;4.87;3.30;;;34.00;46.70;;;;;;5014795;28;20523;-65
2022/05/20 13:56:47;;;;;;;4.10;3.23;;;34.00;47.20;;;;;;5014706;28;20780;-65
2022/05/20 13:59:35;;;;;;;4.00;3.20;;;33.90;46.90;;;;;;5014626;28;20441;-65
2022/05/20 14:02:06;;;;;;;8.83;3.67;;;33.90;47.80;;;;;;5014262;28;20485;-65
2022/05/20 14:04:40;;;;;;;4.40;3.00;;;33.90;47.40;;;;;;5014188;28;20496;-65
2022/05/20 14:07:10;;;;;;;3.10;2.90;;;34.00;46.50;;;;;;5014744;28;20472;-65
2022/05/20 14:09:41;;;;;;;6.83;3.37;;;34.10;47.50;;;;;;5014468;28;20464;-65
2022/05/20 14:12:15;;;;;;;6.40;3.80;;;34.20;48.30;;;;;;5014522;28;20476;-65
2022/05/20 14:14:43;;;;;;;4.07;3.10;;;34.40;47.00;;;;;;5014803;28;20628;-65
2022/05/20 14:17:11;;;;;;;5.33;3.43;;;34.50;47.60;;;;;;5014072;28;20452;-66
2022/05/20 14:19:44;;;;;;;6.90;3.13;;;34.60;48.40;;;;;;5014305;28;20510;-66
2022/05/20 14:22:17;;;;;;;4.80;3.60;;;34.50;47.80;;;;;;5014073;28;20483;-66
2022/05/20 14:24:53;;;;;;;3.80;2.90;;;34.60;47.70;;;;;;5014088;28;20465;-66
2022/05/20 14:27:32;;;;;;;4.43;3.03;;;34.70;46.60;;;;;;5014769;28;20440;-65
2022/05/20 14:30:30;;;;;;;6.47;3.60;;;34.40;46.00;;;;;;5014000;28;20460;-65
2022/05/20 14:33:01;;;;;;;6.10;3.30;;;34.20;46.20;;;;;;5014041;28;20531;-65
2022/05/20 14:35:35;;;;;;;4.93;4.53;;;34.10;49.30;;;;;;5013970;28;20804;-65
2022/05/20 14:38:06;;;;;;;6.87;5.00;;;34.00;56.00;;;;;;5014010;28;20448;-66
2022/05/20 14:40:37;;;;;;;5.90;5.00;;;33.80;57.40;;;;;;5013244;28;20476;-65
2022/05/20 14:43:06;;;;;;;6.10;5.13;;;33.60;58.40;;;;;;5014097;28;20547;-66
2022/05/20 14:45:36;;;;;;;8.40;4.83;;;33.40;60.70;;;;;;5022296;28;20480;-65
2022/05/20 14:48:07;;;;;;;6.53;4.90;;;33.00;60.10;;;;;;5029361;28;20490;-65
2022/05/20 14:50:35;;;;;;;8.33;5.03;;;32.80;60.40;;;;;;5018008;28;20481;-65
2022/05/20 14:53:06;;;;;;;5.37;4.87;;;32.40;60.00;;;;;;5013983;28;20472;-65
2022/05/20 14:55:41;;;;;;;5.50;4.53;;;32.20;59.70;;;;;;5013809;28;20440;-65
2022/05/20 14:58:13;;;;;;;5.60;4.90;;;32.00;60.80;;;;;;5013385;28;20437;-65
2022/05/20 15:00:52;;;;;;;6.17;4.20;;;31.70;60.80;;;;;;5013186;28;20992;-65
2022/05/20 15:03:21;;;;;;;6.30;5.07;;;31.50;61.40;;;;;;5013735;28;20457;-65
2022/05/20 15:05:51;;;;;;;8.87;4.47;;;31.40;62.10;;;;;;5013482;28;20477;-64
2022/05/20 15:08:20;;;;;;;5.47;4.73;;;31.30;61.10;;;;;;5013913;28;20481;-64
2022/05/20 15:10:55;;;;;;;6.93;4.70;;;31.40;62.30;;;;;;5013558;28;20484;-65
2022/05/20 15:13:22;;;;;;;7.83;5.00;;;31.60;63.40;;;;;;5013718;28;20464;-65
2022/05/20 15:15:48;;;;;;;6.27;5.67;;;31.80;62.70;;;;;;5013737;28;20453;-65
2022/05/20 15:18:15;;;;;;;6.70;4.40;;;31.80;62.20;;;;;;5013631;28;20456;-65
2022/05/20 15:20:45;;;;;;;6.13;4.50;;;31.80;60.70;;;;;;5013586;28;20476;-65
2022/05/20 15:23:17;;;;;;;6.73;6.03;;;31.70;62.70;;;;;;5013477;28;20459;-65
2022/05/20 15:25:47;;;;;;;8.60;4.43;;;31.70;62.90;;;;;;5013722;28;20863;-66
2022/05/20 15:34:51;;;;;;;9.10;4.60;;;31.80;62.60;;;;;;5012916;28;20963;-65
2022/05/20 15:36:28;;;;;;;7.97;5.00;;;31.40;61.20;;;;;;5013123;28;20943;-66
2022/05/20 15:38:56;;;;;;;5.53;5.00;;;30.90;62.50;;;;;;5013440;28;20452;-65
2022/05/20 15:41:25;;;;;;;5.17;4.50;;;30.70;63.00;;;;;;5013572;28;20473;-65
2022/05/20 15:43:52;;;;;;;5.67;4.33;;;30.40;63.60;;;;;;5013600;28;20457;-65
2022/05/20 15:46:18;;;;;;;8.77;4.73;;;30.10;64.70;;;;;;5013356;28;20487;-65
2022/05/20 15:48:45;;;;;;;7.43;4.70;;;29.90;66.20;;;;;;5013337;28;20452;-65
2022/05/20 15:51:13;;;;;;;8.27;4.43;;;29.80;66.40;;;;;;5012908;28;20481;-65
2022/05/20 15:53:40;;;;;;;10.50;4.60;;;29.70;67.70;;;;;;5016657;28;20460;-65
2022/05/20 15:56:08;;;;;;;6.83;4.57;;;29.60;69.20;;;;;;5016616;28;20453;-64
2022/05/20 15:58:35;;;;;;;11.30;4.50;;;29.50;69.10;;;;;;5017005;28;20452;-65
2022/05/20 16:01:02;;;;;;;13.57;4.60;;;29.50;69.70;;;;;;5016501;28;20488;-65
2022/05/20 16:03:28;;;;;;;5.53;4.70;;;29.30;70.30;;;;;;5016545;28;20457;-65
2022/05/20 16:05:58;;;;;;;8.43;4.70;;;29.10;70.00;;;;;;5016455;28;20472;-65
2022/05/20 16:08:25;;;;;;;4.70;4.30;;;29.00;71.50;;;;;;5016456;28;20452;-65
2022/05/20 16:10:55;;;;;;;8.93;4.30;;;28.90;73.70;;;;;;5016414;28;20476;-65
2022/05/20 16:13:24;;;;;;;6.63;5.00;;;28.80;72.70;;;;;;5016354;28;20456;-64
2022/05/20 16:15:51;;;;;;;12.50;4.33;;;28.70;73.40;;;;;;5015981;28;20944;-64
2022/05/20 16:18:18;;;;;;;11.70;4.73;;;28.60;74.50;;;;;;5015858;28;20940;-64
2022/05/20 16:20:47;;;;;;;4.80;4.27;;;28.40;74.10;;;;;;5016025;28;20488;-65
2022/05/20 16:23:22;;;;;;;8.03;4.90;;;28.40;76.00;;;;;;5016321;28;20453;-65
2022/05/20 16:25:55;;;;;;;10.40;4.63;;;28.20;75.40;;;;;;5016062;28;20533;-65
2022/05/20 16:28:24;;;;;;;5.60;5.07;;;28.10;76.70;;;;;;5016088;28;20436;-64
2022/05/20 16:30:51;;;;;;;7.07;5.07;;;28.10;76.00;;;;;;5015764;28;20504;-66
2022/05/20 16:33:18;;;;;;;7.00;4.90;;;28.00;76.10;;;;;;5015623;28;20936;-64
2022/05/20 16:35:45;;;;;;;7.37;4.50;;;27.90;76.30;;;;;;5015950;28;20453;-64
2022/05/20 16:38:14;;;;;;;5.37;4.67;;;27.90;77.80;;;;;;5015595;28;20463;-64
2022/05/20 16:40:40;;;;;;;8.30;4.33;;;27.90;78.60;;;;;;5015699;28;20523;-64
2022/05/20 16:43:07;;;;;;;6.00;5.50;;;27.90;78.10;;;;;;5015538;28;20507;-65
2022/05/20 16:45:36;;;;;;;8.53;5.07;;;27.80;78.80;;;;;;5015615;28;20481;-64
2022/05/20 16:48:07;;;;;;;8.27;4.93;;;27.90;79.10;;;;;;5015768;28;20457;-64
2022/05/20 16:50:39;;;;;;;10.40;4.63;;;27.90;78.90;;;;;;5015882;28;20480;-65
2022/05/20 16:53:06;;;;;;;7.27;4.77;;;27.90;79.10;;;;;;5015737;28;20437;-64
2022/05/20 16:55:33;;;;;;;6.40;4.50;;;27.90;79.30;;;;;;5015563;28;20445;-64
2022/05/20 17:03:36;;;;;;;4.43;4.03;;;28.20;78.40;;;;;;5014341;28;20942;-64
2022/05/20 17:06:03;;;;;;;7.23;3.70;;;28.20;76.50;;;;;;5015306;28;20887;-65
2022/05/20 17:08:30;;;;;;;8.07;5.20;;;28.20;75.60;;;;;;5015386;28;20457;-64
2022/05/20 17:10:58;;;;;;;6.37;4.33;;;28.20;75.50;;;;;;5015243;28;20868;-64
2022/05/20 17:13:25;;;;;;;5.00;4.47;;;28.20;75.40;;;;;;5015183;28;20461;-65
2022/05/20 17:15:53;;;;;;;8.90;4.50;;;28.20;76.40;;;;;;5015174;28;20935;-66
2022/05/20 17:18:20;;;;;;;6.20;4.00;;;28.20;76.50;;;;;;5015116;28;20464;-65
2022/05/20 17:20:47;;;;;;;5.63;5.10;;;28.20;76.50;;;;;;5015032;28;20546;-65
2022/05/20 17:26:01;;;;;;;6.50;4.67;;;28.40;76.60;;;;;;5015072;28;20512;-65
2022/05/20 17:28:28;;;;;;;7.07;4.60;;;28.40;75.60;;;;;;5015016;28;20452;-65
2022/05/20 17:30:57;;;;;;;10.33;5.23;;;28.50;75.50;;;;;;5014485;28;20477;-65
2022/05/20 17:33:24;;;;;;;6.93;3.80;;;28.60;75.60;;;;;;5014981;28;20456;-65
2022/05/20 17:35:52;;;;;;;7.97;4.07;;;28.60;74.50;;;;;;5014920;28;20449;-65
2022/05/20 17:38:19;;;;;;;5.63;4.63;;;28.60;74.30;;;;;;5014872;28;20457;-65
2022/05/20 17:40:46;;;;;;;5.60;4.50;;;28.60;73.30;;;;;;5014829;28;20508;-65
2022/05/20 17:43:13;;;;;;;8.27;4.70;;;28.60;73.60;;;;;;5014800;28;20479;-66
2022/05/20 17:45:40;;;;;;;5.37;4.10;;;28.60;72.80;;;;;;5014796;28;20527;-66
2022/05/20 17:48:08;;;;;;;6.70;4.40;;;28.60;71.50;;;;;;5014719;28;20453;-65
2022/05/20 17:50:35;;;;;;;12.60;5.23;;;28.60;72.00;;;;;;5014111;28;20838;-65
2022/05/20 17:53:02;;;;;;;7.30;4.20;;;28.70;71.10;;;;;;5014614;28;20567;-65
2022/05/20 17:55:29;;;;;;;5.30;4.10;;;28.70;72.40;;;;;;5015377;28;20480;-65
2022/05/20 17:57:56;;;;;;;8.13;4.80;;;28.70;71.40;;;;;;5014459;28;20506;-66
2022/05/20 18:00:24;;;;;;;5.77;4.00;;;28.80;70.80;;;;;;5014267;28;20507;-66